Time;durP1;ratioP1;P1;durP2;ratioP2;P2;SDS_P1;SDS_P2;PMS_P1;PMS_P2;Temp;Humidity;BMP_temperature;BMP_pressure;BME280_temperature;BME280_humidity;BME280_pressure;Samples;Min_cycle;Max_cycle;Signal;HPM_P1;HPM_P2
2021/11/07 00:00:07;;;;;;;;;;;6.00;99.90;6.60;100623.00;;;;345210;28;96155;-85
2021/11/07 00:00:44;;;;;;;;;;;6.00;99.90;6.60;100627.00;;;;347412;28;83355;-86
2021/11/07 00:01:29;;;;;;;;;;;6.10;99.90;6.60;100618.00;;;;348674;27;83486;-85
2021/11/07 00:01:55;;;;;;;;;;;6.10;99.90;6.60;100629.00;;;;346722;28;95697;-86
2021/11/07 00:03:19;;;;;;;;;;;6.10;99.90;6.40;100617.00;;;;346716;28;93484;-85
2021/11/07 00:03:58;;;;;;;;;;;6.10;99.90;6.60;100623.00;;;;348773;27;83317;-85
2021/11/07 00:04:36;;;;;;;;;;;6.10;99.90;6.60;100623.00;;;;345176;28;97384;-85
2021/11/07 00:04:55;;;;;;;;;;;6.10;99.90;6.70;100621.00;;;;347390;28;82398;-86
2021/11/07 00:05:10;;;;;;;;;;;6.10;99.90;6.70;100622.00;;;;345197;28;94241;-85
2021/11/07 00:05:28;;;;;;;;;;;6.10;99.90;6.70;100616.00;;;;345993;28;83208;-85
2021/11/07 00:06:01;;;;;;;;;;;6.20;99.90;6.70;100614.00;;;;346636;28;97012;-86
2021/11/07 00:06:35;;;;;;;;;;;6.10;99.90;6.70;100617.00;;;;348781;27;83424;-86
2021/11/07 00:07:18;;;;;;;;;;;6.20;99.90;6.70;100613.00;;;;347130;28;83455;-85
2021/11/07 00:09:01;;;;;;;;;;;6.20;99.90;6.70;100618.00;;;;346605;28;96988;-85
2021/11/07 00:09:25;;;;;;;;;;;6.20;99.90;6.70;100612.00;;;;347269;28;84089;-86
2021/11/07 00:10:06;;;;;;;;;;;6.20;99.90;6.80;100611.00;;;;345552;28;83467;-86
2021/11/07 00:10:32;;;;;;;;;;;6.30;99.90;6.80;100614.00;;;;346566;28;94714;-86
2021/11/07 00:10:50;;;;;;;;;;;6.30;99.90;6.70;100610.00;;;;347453;28;83271;-86
2021/11/07 00:11:06;;;;;;;;;;;6.30;99.90;6.70;100608.00;;;;347909;27;93015;-86
2021/11/07 00:11:44;;;;;;;;;;;6.30;99.90;6.80;100611.00;;;;348128;27;94178;-86
2021/11/07 00:12:00;;;;;;;;;;;6.30;99.90;6.80;100614.00;;;;347288;28;83387;-86
2021/11/07 00:12:15;;;;;;;;;;;6.30;99.90;6.70;100605.00;;;;346567;28;94961;-86
2021/11/07 00:12:36;;;;;;;;;;;6.20;99.90;6.80;100603.00;;;;346040;28;82503;-86
2021/11/07 00:12:50;;;;;;;;;;;6.30;99.90;6.70;100610.00;;;;347461;27;97492;-86
2021/11/07 00:13:14;;;;;;;;;;;6.20;99.90;6.70;100618.00;;;;349144;27;83415;-86
2021/11/07 00:13:27;;;;;;;;;;;6.20;99.90;6.80;100615.00;;;;343745;28;95839;-86
2021/11/07 00:13:38;;;;;;;;;;;6.30;99.90;6.80;100612.00;;;;346115;28;83322;-86
2021/11/07 00:13:51;;;;;;;;;;;6.30;99.90;6.80;100614.00;;;;347070;27;93716;-86
2021/11/07 00:14:05;;;;;;;;;;;6.20;99.90;6.80;100612.00;;;;348882;27;83241;-86
2021/11/07 00:14:17;;;;;;;;;;;6.30;99.90;6.90;100615.00;;;;348132;27;94094;-86
2021/11/07 00:14:28;;;;;;;;;;;6.30;99.90;6.90;100622.00;;;;348728;27;83228;-85
2021/11/07 00:14:41;;;;;;;;;;;6.30;99.90;6.90;100621.00;;;;346590;28;95062;-86
2021/11/07 00:14:53;;;;;;;;;;;6.30;99.90;6.90;100619.00;;;;348927;27;83189;-86
2021/11/07 00:15:06;;;;;;;;;;;6.30;99.90;6.90;100618.00;;;;345233;28;95872;-86
2021/11/07 00:15:18;;;;;;;;;;;6.30;99.90;6.90;100615.00;;;;350153;27;83548;-86
2021/11/07 00:15:30;;;;;;;;;;;6.30;99.90;6.90;100617.00;;;;349082;27;97630;-86
2021/11/07 00:15:42;;;;;;;;;;;6.30;99.90;6.90;100619.00;;;;351708;27;83249;-86
2021/11/07 00:15:57;;;;;;;;;;;6.30;99.90;6.90;100617.00;;;;347530;27;94373;-86
2021/11/07 00:16:14;;;;;;;;;;;6.30;99.90;6.90;100616.00;;;;348718;27;83273;-86
2021/11/07 00:16:29;;;;;;;;;;;6.30;99.90;7.00;100628.00;;;;345268;28;94344;-86
2021/11/07 00:16:43;;;;;;;;;;;6.30;99.90;6.90;100623.00;;;;348874;27;82376;-85
2021/11/07 00:16:55;;;;;;;;;;;6.40;99.90;6.90;100621.00;;;;347948;27;95421;-86
2021/11/07 00:17:07;;;;;;;;;;;6.40;99.90;7.00;100620.00;;;;347467;28;82420;-86
2021/11/07 00:17:21;;;;;;;;;;;6.40;99.90;7.00;100614.00;;;;347891;27;95433;-86
2021/11/07 00:17:34;;;;;;;;;;;6.40;99.90;7.00;100619.00;;;;348758;27;83390;-85
2021/11/07 00:17:51;;;;;;;;;;;6.40;99.90;7.00;100618.00;;;;346647;28;94792;-86
2021/11/07 00:18:07;;;;;;;;;;;6.40;99.90;6.90;100608.00;;;;348835;27;83249;-86
2021/11/07 00:18:26;;;;;;;;;;;6.40;99.90;7.00;100618.00;;;;345243;28;94440;-86
2021/11/07 00:18:46;;;;;;;;;;;6.40;99.90;7.00;100615.00;;;;347262;27;83422;-85
2021/11/07 00:19:12;;;;;;;;;;;6.40;99.90;7.00;100614.00;;;;345916;28;94285;-85
2021/11/07 00:19:34;;;;;;;;;;;6.40;99.90;7.00;100611.00;;;;345580;28;83382;-85
2021/11/07 00:19:51;;;;;;;;;;;6.40;99.90;7.00;100623.00;;;;345140;28;98119;-85
2021/11/07 00:20:16;;;;;;;;;;;6.50;99.90;7.00;100616.00;;;;347372;28;83345;-86
2021/11/07 00:20:31;;;;;;;;;;;6.50;99.90;6.90;100619.00;;;;343862;28;94470;-86
2021/11/07 00:20:52;;;;;;;;;;;6.50;99.90;7.00;100619.00;;;;344794;28;82734;-86
2021/11/07 00:21:51;;;;;;;;;;;6.50;99.90;6.80;100614.00;;;;340660;28;82299;-86
2021/11/07 00:22:47;;;;;;;;;;;6.40;99.90;7.00;100611.00;;;;344624;28;83324;-86
2021/11/07 00:23:56;;;;;;;;;;;6.50;99.90;6.90;100618.00;;;;346117;28;82424;-86
2021/11/07 00:24:10;;;;;;;;;;;6.50;99.90;7.00;100609.00;;;;343942;28;94747;-86
2021/11/07 00:24:43;;;;;;;;;;;6.50;99.90;6.90;100615.00;;;;347342;28;83212;-86
2021/11/07 00:25:03;;;;;;;;;;;6.50;99.90;7.00;100616.00;;;;346297;28;94070;-85
2021/11/07 00:25:20;;;;;;;;;;;6.50;99.90;7.00;100616.00;;;;346030;28;83317;-85
2021/11/07 00:26:00;;;;;;;;;;;6.50;99.90;6.90;100608.00;;;;347683;27;83329;-86
2021/11/07 00:26:20;;;;;;;;;;;6.50;99.90;6.80;100615.00;;;;345337;28;94140;-86
2021/11/07 00:27:07;;;;;;;;;;;6.40;99.90;6.90;100610.00;;;;346629;28;95424;-86
2021/11/07 00:27:36;;;;;;;;;;;6.50;99.90;7.00;100616.00;;;;343501;28;94383;-86
2021/11/07 00:27:55;;;;;;;;;;;6.50;99.90;7.00;100614.00;;;;347484;27;83380;-85
2021/11/07 00:28:12;;;;;;;;;;;6.50;99.90;7.00;100608.00;;;;345153;28;93789;-86
2021/11/07 00:28:39;;;;;;;;;;;6.50;99.90;7.00;100610.00;;;;347025;28;83402;-86
2021/11/07 00:29:03;;;;;;;;;;;6.50;99.90;7.10;100622.00;;;;344300;28;94382;-86
2021/11/07 00:29:19;;;;;;;;;;;6.50;99.90;7.00;100615.00;;;;344659;28;82324;-86
2021/11/07 00:29:37;;;;;;;;;;;6.50;99.90;7.00;100610.00;;;;345171;28;97357;-86
2021/11/07 00:30:33;;;;;;;;;;;6.50;99.90;6.90;100611.00;;;;346319;28;94119;-85
2021/11/07 00:30:54;;;;;;;;;;;6.50;99.90;7.00;100608.00;;;;347182;28;82259;-86
2021/11/07 00:31:32;;;;;;;;;;;6.50;99.90;7.00;100612.00;;;;346553;28;94062;-85
2021/11/07 00:32:42;;;;;;;;;;;6.50;99.90;6.80;100601.00;;;;347436;28;83240;-86
2021/11/07 00:33:57;;;;;;;;;;;6.40;99.90;6.80;100603.00;;;;347411;28;83447;-85
2021/11/07 00:36:22;;;;;;;;;;;6.40;99.90;6.80;100602.00;;;;345991;28;83171;-85
2021/11/07 00:36:53;;;;;;;;;;;6.30;99.90;6.90;100603.00;;;;347304;27;83389;-86
2021/11/07 00:37:10;;;;;;;;;;;6.30;99.90;6.90;100594.00;;;;347855;27;94768;-85
2021/11/07 00:37:36;;;;;;;;;;;6.40;99.90;6.90;100591.00;;;;345657;28;83466;-86
2021/11/07 00:37:51;;;;;;;;;;;6.40;99.90;6.80;100599.00;;;;346480;28;95567;-86
2021/11/07 00:38:07;;;;;;;;;;;6.30;99.90;6.80;100599.00;;;;344512;28;83371;-85
2021/11/07 00:38:24;;;;;;;;;;;6.30;99.90;6.90;100595.00;;;;343838;28;95305;-86
2021/11/07 00:38:44;;;;;;;;;;;6.30;99.90;6.90;100583.00;;;;344591;28;82430;-85
2021/11/07 00:39:16;;;;;;;;;;;6.40;99.90;6.90;100592.00;;;;346007;28;83471;-86
2021/11/07 00:39:48;;;;;;;;;;;6.40;99.90;6.90;100597.00;;;;342391;28;97441;-86
2021/11/07 00:40:48;;;;;;;;;;;6.40;99.90;7.00;100587.00;;;;342181;28;94654;-86
2021/11/07 00:41:18;;;;;;;;;;;6.40;99.90;7.00;100581.00;;;;340379;28;83435;-85
2021/11/07 00:42:19;;;;;;;;;;;6.40;99.90;6.90;100591.00;;;;343839;28;93900;-85
2021/11/07 00:42:54;;;;;;;;;;;6.40;99.90;7.00;100589.00;;;;345137;28;94748;-86
2021/11/07 00:43:43;;;;;;;;;;;6.50;99.90;7.00;100580.00;;;;345030;28;93097;-85
2021/11/07 00:44:30;;;;;;;;;;;6.50;99.90;7.00;100586.00;;;;346745;28;92408;-86
2021/11/07 00:44:59;;;;;;;;;;;6.40;99.90;6.90;100586.00;;;;344624;28;83544;-85
2021/11/07 00:45:24;;;;;;;;;;;6.50;99.90;7.00;100583.00;;;;345120;28;95621;-85
2021/11/07 00:46:19;;;;;;;;;;;6.50;99.90;7.10;100587.00;;;;347864;27;94507;-86
2021/11/07 00:46:56;;;;;;;;;;;6.50;99.90;6.90;100577.00;;;;345984;28;82368;-86
2021/11/07 00:47:15;;;;;;;;;;;6.50;99.90;7.00;100579.00;;;;345068;28;93777;-85
2021/11/07 00:47:55;;;;;;;;;;;6.50;99.90;6.90;100582.00;;;;345160;28;97490;-86
2021/11/07 00:48:24;;;;;;;;;;;6.50;99.90;6.80;100589.00;;;;348821;27;83333;-86
2021/11/07 00:48:53;;;;;;;;;;;6.50;99.90;6.90;100572.00;;;;345693;28;83119;-86
2021/11/07 00:49:09;;;;;;;;;;;6.50;99.90;6.80;100583.00;;;;346311;28;97638;-86
2021/11/07 00:49:25;;;;;;;;;;;6.40;99.90;6.90;100582.00;;;;349285;27;83491;-86
2021/11/07 00:49:42;;;;;;;;;;;6.40;99.90;6.90;100596.00;;;;346675;28;94289;-85
2021/11/07 00:50:01;;;;;;;;;;;6.40;99.90;6.90;100590.00;;;;346762;28;83331;-85
2021/11/07 00:50:17;;;;;;;;;;;6.40;99.90;7.00;100595.00;;;;345252;28;94563;-86
2021/11/07 00:50:40;;;;;;;;;;;6.40;99.90;6.90;100587.00;;;;347357;28;83347;-86
2021/11/07 00:52:37;;;;;;;;;;;6.50;99.90;7.10;100604.00;;;;347416;28;83142;-86
2021/11/07 00:53:21;;;;;;;;;;;6.50;99.90;7.10;100596.00;;;;345068;28;95678;-86
2021/11/07 00:53:45;;;;;;;;;;;6.50;99.90;7.10;100588.00;;;;345160;28;97294;-85
2021/11/07 00:55:02;;;;;;;;;;;6.50;99.90;7.10;100591.00;;;;345281;28;94311;-85
2021/11/07 00:55:23;;;;;;;;;;;6.50;99.90;7.10;100587.00;;;;346033;28;82369;-85
2021/11/07 00:55:48;;;;;;;;;;;6.60;99.90;7.10;100580.00;;;;346579;28;94025;-86
2021/11/07 00:56:57;;;;;;;;;;;6.50;99.90;7.10;100592.00;;;;348852;27;83315;-86
2021/11/07 00:57:52;;;;;;;;;;;6.60;99.90;7.10;100595.00;;;;345256;28;94516;-85
2021/11/07 00:57:56;;;;;;;;;;;6.60;99.90;7.10;100598.00;;;;344899;28;83474;-85
2021/11/07 00:58:12;;;;;;;;;;;6.60;99.90;7.10;100594.00;;;;344939;28;96073;-85
2021/11/07 00:58:34;;;;;;;;;;;6.60;99.90;7.00;100591.00;;;;348404;27;82453;-86
2021/11/07 00:59:10;;;;;;;;;;;6.60;99.90;7.10;100596.00;;;;343939;28;92779;-85
2021/11/07 00:59:50;;;;;;;;;;;6.60;99.90;7.10;100592.00;;;;346649;28;94840;-85
2021/11/07 01:00:13;;;;;;;;;;;6.60;99.90;7.10;100596.00;;;;345974;28;83403;-86
2021/11/07 01:00:45;;;;;;;;;;;6.60;99.90;7.10;100591.00;;;;346454;28;94153;-85
2021/11/07 01:01:04;;;;;;;;;;;6.60;99.90;7.00;100593.00;;;;348048;27;82451;-85
2021/11/07 01:01:18;;;;;;;;;;;6.60;99.90;7.10;100589.00;;;;345148;28;91989;-85
2021/11/07 01:01:34;;;;;;;;;;;6.60;99.90;7.00;100593.00;;;;347430;28;83224;-86
2021/11/07 01:02:00;;;;;;;;;;;6.60;99.90;7.10;100580.00;;;;345251;28;94663;-86
2021/11/07 01:02:40;;;;;;;;;;;6.60;99.90;7.10;100597.00;;;;347416;28;82338;-86
2021/11/07 01:02:57;;;;;;;;;;;6.60;99.90;7.10;100587.00;;;;345852;28;93908;-86
2021/11/07 01:03:13;;;;;;;;;;;6.60;99.90;7.10;100579.00;;;;347444;28;83299;-86
2021/11/07 01:03:25;;;;;;;;;;;6.60;99.90;7.10;100587.00;;;;344979;28;95565;-85
2021/11/07 01:03:41;;;;;;;;;;;6.60;99.90;7.10;100590.00;;;;344518;28;83486;-86
2021/11/07 01:03:55;;;;;;;;;;;6.60;99.90;7.10;100582.00;;;;346044;28;94140;-86
2021/11/07 01:04:12;;;;;;;;;;;6.60;99.90;7.10;100583.00;;;;347103;28;83323;-85
2021/11/07 01:04:26;;;;;;;;;;;6.70;99.90;7.10;100582.00;;;;346573;28;94548;-86
2021/11/07 01:04:44;;;;;;;;;;;6.60;99.90;7.10;100578.00;;;;346107;28;82489;-86
2021/11/07 01:04:56;;;;;;;;;;;6.60;99.90;7.10;100587.00;;;;344845;28;94593;-86
2021/11/07 01:05:18;;;;;;;;;;;6.60;99.90;7.10;100581.00;;;;347286;28;83264;-86
2021/11/07 01:05:32;;;;;;;;;;;6.60;99.90;7.10;100587.00;;;;346217;28;97122;-86
2021/11/07 01:05:44;;;;;;;;;;;6.70;99.90;7.10;100587.00;;;;347407;28;83328;-86
2021/11/07 01:05:56;;;;;;;;;;;6.60;99.90;7.10;100582.00;;;;346513;28;94143;-86
2021/11/07 01:06:09;;;;;;;;;;;6.70;99.90;7.10;100581.00;;;;348513;27;83520;-86
2021/11/07 01:06:21;;;;;;;;;;;6.70;99.90;7.10;100577.00;;;;346411;28;92983;-86
2021/11/07 01:06:33;;;;;;;;;;;6.70;99.90;7.10;100595.00;;;;348858;27;82189;-85
2021/11/07 01:06:45;;;;;;;;;;;6.70;99.90;7.00;100575.00;;;;348990;27;97068;-86
2021/11/07 01:06:56;;;;;;;;;;;6.70;99.90;7.10;100574.00;;;;347232;28;82342;-86
2021/11/07 01:07:08;;;;;;;;;;;6.60;99.90;7.10;100579.00;;;;345137;28;93605;-86
2021/11/07 01:07:23;;;;;;;;;;;6.70;99.90;7.10;100579.00;;;;348371;27;82603;-85
2021/11/07 01:07:34;;;;;;;;;;;6.60;99.90;7.20;100577.00;;;;349501;27;93538;-85
2021/11/07 01:07:46;;;;;;;;;;;6.70;99.90;7.10;100581.00;;;;348878;27;82363;-85
2021/11/07 01:07:58;;;;;;;;;;;6.70;99.90;7.10;100578.00;;;;346457;28;96408;-86
2021/11/07 01:08:10;;;;;;;;;;;6.70;99.90;7.10;100580.00;;;;347364;28;83302;-85
2021/11/07 01:08:21;;;;;;;;;;;6.70;99.90;7.10;100570.00;;;;345255;28;93018;-85
2021/11/07 01:08:33;;;;;;;;;;;6.70;99.90;7.10;100583.00;;;;348650;27;83280;-85
2021/11/07 01:08:48;;;;;;;;;;;6.70;99.90;7.20;100569.00;;;;345166;28;95533;-86
2021/11/07 01:09:00;;;;;;;;;;;6.70;99.90;7.10;100572.00;;;;348729;27;83293;-86
2021/11/07 01:09:12;;;;;;;;;;;6.70;99.90;7.20;100573.00;;;;346588;28;93088;-86
2021/11/07 01:09:24;;;;;;;;;;;6.70;99.90;7.20;100573.00;;;;345629;28;83331;-86
2021/11/07 01:09:39;;;;;;;;;;;6.70;99.90;7.10;100578.00;;;;345308;28;94757;-85
2021/11/07 01:09:52;;;;;;;;;;;6.70;99.90;7.10;100577.00;;;;346132;28;82523;-85
2021/11/07 01:10:04;;;;;;;;;;;6.70;99.90;7.10;100577.00;;;;347016;27;94969;-86
2021/11/07 01:10:16;;;;;;;;;;;6.70;99.90;7.20;100581.00;;;;344592;28;83454;-85
2021/11/07 01:10:30;;;;;;;;;;;6.70;99.90;7.20;100576.00;;;;345215;28;94502;-85
2021/11/07 01:10:41;;;;;;;;;;;6.70;99.90;7.10;100577.00;;;;347305;28;83323;-86
2021/11/07 01:10:54;;;;;;;;;;;6.70;99.90;7.10;100570.00;;;;345148;28;94504;-85
2021/11/07 01:11:05;;;;;;;;;;;6.70;99.90;7.20;100575.00;;;;346025;28;82281;-85
2021/11/07 01:11:17;;;;;;;;;;;6.70;99.90;7.20;100574.00;;;;346585;28;94507;-86
2021/11/07 01:11:29;;;;;;;;;;;6.70;99.90;7.20;100579.00;;;;348540;27;82408;-86
2021/11/07 01:11:41;;;;;;;;;;;6.70;99.90;7.20;100569.00;;;;347764;27;96706;-86
2021/11/07 01:11:53;;;;;;;;;;;6.70;99.90;7.20;100582.00;;;;348496;27;82544;-86
2021/11/07 01:12:06;;;;;;;;;;;6.70;99.90;7.20;100578.00;;;;346360;28;95022;-86
2021/11/07 01:12:18;;;;;;;;;;;6.70;99.90;7.20;100583.00;;;;344541;28;83146;-86
2021/11/07 01:12:30;;;;;;;;;;;6.80;99.90;7.10;100576.00;;;;347704;27;96446;-86
2021/11/07 01:12:42;;;;;;;;;;;6.70;99.90;7.20;100578.00;;;;347439;28;82384;-86
2021/11/07 01:12:54;;;;;;;;;;;6.70;99.90;7.20;100570.00;;;;346097;28;92945;-86
2021/11/07 01:13:06;;;;;;;;;;;6.80;99.90;7.20;100576.00;;;;345893;28;83453;-86
2021/11/07 01:13:18;;;;;;;;;;;6.80;99.90;7.20;100579.00;;;;346392;28;96449;-86
2021/11/07 01:13:30;;;;;;;;;;;6.70;99.90;7.20;100574.00;;;;347344;28;83348;-86
2021/11/07 01:13:43;;;;;;;;;;;6.70;99.90;7.20;100581.00;;;;346612;28;95912;-86
2021/11/07 01:13:55;;;;;;;;;;;6.70;99.90;7.10;100582.00;;;;345693;28;82678;-86
2021/11/07 01:14:08;;;;;;;;;;;6.80;99.90;7.20;100575.00;;;;346585;28;92621;-86
2021/11/07 01:14:20;;;;;;;;;;;6.80;99.90;7.20;100582.00;;;;344693;28;82285;-86
2021/11/07 01:14:32;;;;;;;;;;;6.80;99.90;7.20;100587.00;;;;345231;28;93607;-86
2021/11/07 01:14:44;;;;;;;;;;;6.80;99.90;7.20;100581.00;;;;345777;28;83524;-86
2021/11/07 01:14:57;;;;;;;;;;;6.80;99.90;7.20;100577.00;;;;345091;28;95739;-86
2021/11/07 01:15:09;;;;;;;;;;;6.80;99.90;7.20;100573.00;;;;347371;28;83130;-86
2021/11/07 01:15:21;;;;;;;;;;;6.80;99.90;7.20;100575.00;;;;346695;28;92785;-85
2021/11/07 01:15:33;;;;;;;;;;;6.80;99.90;7.20;100576.00;;;;344695;28;82189;-86
2021/11/07 01:15:45;;;;;;;;;;;6.80;99.90;7.20;100578.00;;;;343334;28;93129;-85
2021/11/07 01:15:57;;;;;;;;;;;6.80;99.90;7.20;100588.00;;;;343970;28;83235;-86
2021/11/07 01:16:09;;;;;;;;;;;6.80;99.90;7.20;100588.00;;;;344737;28;96949;-85
2021/11/07 01:16:21;;;;;;;;;;;6.80;99.90;7.10;100577.00;;;;346467;28;82617;-85
2021/11/07 01:16:33;;;;;;;;;;;6.80;99.90;7.10;100576.00;;;;345142;28;94389;-85
2021/11/07 01:16:45;;;;;;;;;;;6.80;99.90;7.10;100582.00;;;;344640;28;82362;-86
2021/11/07 01:16:56;;;;;;;;;;;6.80;99.90;7.10;100582.00;;;;346366;28;95473;-86
2021/11/07 01:17:08;;;;;;;;;;;6.80;99.90;7.20;100583.00;;;;345801;28;82371;-86
2021/11/07 01:17:20;;;;;;;;;;;6.80;99.90;7.20;100590.00;;;;343810;28;94675;-85
2021/11/07 01:17:32;;;;;;;;;;;6.80;99.90;7.20;100581.00;;;;348751;27;83397;-85
2021/11/07 01:17:44;;;;;;;;;;;6.80;99.90;7.20;100578.00;;;;346623;28;94631;-86
2021/11/07 01:17:56;;;;;;;;;;;6.70;99.90;7.20;100576.00;;;;345747;28;82494;-86
2021/11/07 01:18:07;;;;;;;;;;;6.70;99.90;7.20;100583.00;;;;345030;28;94188;-84
2021/11/07 01:18:19;;;;;;;;;;;6.80;99.90;7.10;100592.00;;;;345909;28;83371;-86
2021/11/07 01:18:31;;;;;;;;;;;6.80;99.90;7.00;100589.00;;;;346541;28;94095;-86
2021/11/07 01:18:43;;;;;;;;;;;6.70;99.90;7.00;100587.00;;;;347368;28;82357;-86
2021/11/07 01:18:55;;;;;;;;;;;6.70;99.90;7.00;100594.00;;;;346255;28;94260;-85
2021/11/07 01:19:07;;;;;;;;;;;6.70;99.90;7.10;100587.00;;;;350169;27;82412;-86
2021/11/07 01:19:19;;;;;;;;;;;6.70;99.90;7.10;100595.00;;;;346487;28;94404;-85
2021/11/07 01:19:31;;;;;;;;;;;6.70;99.90;7.10;100597.00;;;;345983;28;83116;-85
2021/11/07 01:19:42;;;;;;;;;;;6.70;99.90;7.10;100596.00;;;;344990;28;95460;-86
2021/11/07 01:19:55;;;;;;;;;;;6.70;99.90;7.20;100595.00;;;;346890;27;83284;-86
2021/11/07 01:20:08;;;;;;;;;;;6.70;99.90;7.20;100595.00;;;;344872;28;97607;-85
2021/11/07 01:20:22;;;;;;;;;;;6.70;99.90;7.20;100597.00;;;;347451;28;82445;-86
2021/11/07 01:20:34;;;;;;;;;;;6.70;99.90;7.20;100600.00;;;;345183;28;94312;-86
2021/11/07 01:20:46;;;;;;;;;;;6.70;99.90;7.10;100596.00;;;;347210;28;83273;-86
2021/11/07 01:20:57;;;;;;;;;;;6.70;99.90;7.20;100592.00;;;;346345;28;97001;-86
2021/11/07 01:21:12;;;;;;;;;;;6.70;99.90;7.20;100595.00;;;;347254;28;83338;-85
2021/11/07 01:21:25;;;;;;;;;;;6.70;99.90;7.20;100599.00;;;;347958;27;94805;-86
2021/11/07 01:21:43;;;;;;;;;;;6.70;99.90;7.20;100597.00;;;;347503;28;82286;-86
2021/11/07 01:21:58;;;;;;;;;;;6.70;99.90;7.10;100595.00;;;;346300;28;93741;-86
2021/11/07 01:22:15;;;;;;;;;;;6.70;99.90;7.20;100588.00;;;;344382;28;83284;-85
2021/11/07 01:22:53;;;;;;;;;;;6.70;99.90;7.10;100592.00;;;;345123;28;97477;-86
2021/11/07 01:23:27;;;;;;;;;;;6.70;99.90;7.20;100593.00;;;;345294;28;97311;-86
2021/11/07 01:23:46;;;;;;;;;;;6.80;99.90;7.20;100587.00;;;;346177;28;82338;-86
2021/11/07 01:24:04;;;;;;;;;;;6.70;99.90;7.10;100592.00;;;;345404;28;93768;-85
2021/11/07 01:24:23;;;;;;;;;;;6.70;99.90;7.00;100600.00;;;;346325;28;83327;-86
2021/11/07 01:24:39;;;;;;;;;;;6.70;99.90;7.10;100590.00;;;;345296;28;97234;-85
2021/11/07 01:25:01;;;;;;;;;;;6.70;99.90;7.10;100593.00;;;;345692;28;83457;-85
2021/11/07 01:25:13;;;;;;;;;;;6.70;99.90;7.10;100593.00;;;;345430;28;94245;-86
2021/11/07 01:25:26;;;;;;;;;;;6.70;99.90;7.10;100591.00;;;;347537;28;83391;-86
2021/11/07 01:25:48;;;;;;;;;;;6.70;99.90;7.00;100592.00;;;;345383;28;94990;-85
2021/11/07 01:26:10;;;;;;;;;;;6.70;99.90;6.90;100598.00;;;;343486;28;83246;-86
2021/11/07 01:26:45;;;;;;;;;;;6.60;99.90;7.10;100591.00;;;;347441;27;83232;-85
2021/11/07 01:27:08;;;;;;;;;;;6.60;99.90;7.10;100591.00;;;;345453;28;94109;-86
2021/11/07 01:27:34;;;;;;;;;;;6.60;99.90;7.20;100587.00;;;;345823;28;84153;-86
2021/11/07 01:27:46;;;;;;;;;;;6.60;99.90;7.00;100590.00;;;;346452;28;96371;-85
2021/11/07 01:27:59;;;;;;;;;;;6.60;99.90;7.00;100587.00;;;;346033;28;83460;-86
2021/11/07 01:28:11;;;;;;;;;;;6.60;99.90;7.00;100599.00;;;;346750;28;97705;-85
2021/11/07 01:28:24;;;;;;;;;;;6.60;99.90;7.00;100597.00;;;;343661;28;83277;-86
2021/11/07 01:28:44;;;;;;;;;;;6.60;99.90;7.00;100592.00;;;;345255;28;95486;-86
2021/11/07 01:29:12;;;;;;;;;;;6.60;99.90;7.00;100587.00;;;;347507;28;83485;-85
2021/11/07 01:29:25;;;;;;;;;;;6.60;99.90;7.10;100597.00;;;;346736;27;96215;-85
2021/11/07 01:29:42;;;;;;;;;;;6.60;99.90;7.00;100589.00;;;;344789;28;83222;-86
2021/11/07 01:29:56;;;;;;;;;;;6.60;99.90;7.10;100600.00;;;;345418;28;94760;-85
2021/11/07 01:30:15;;;;;;;;;;;6.60;99.90;7.00;100592.00;;;;347590;28;83342;-86
2021/11/07 01:30:29;;;;;;;;;;;6.60;99.90;7.10;100589.00;;;;345419;28;97062;-86
2021/11/07 01:30:59;;;;;;;;;;;6.60;99.90;7.20;100593.00;;;;348695;27;82413;-85
2021/11/07 01:31:12;;;;;;;;;;;6.60;99.90;7.10;100587.00;;;;346757;28;97159;-85
2021/11/07 01:31:25;;;;;;;;;;;6.60;99.90;7.00;100589.00;;;;348664;27;83618;-86
2021/11/07 01:31:38;;;;;;;;;;;6.60;99.90;7.10;100592.00;;;;345444;28;98027;-85
2021/11/07 01:31:50;;;;;;;;;;;6.60;99.90;7.00;100595.00;;;;346545;28;83393;-86
2021/11/07 01:32:03;;;;;;;;;;;6.60;99.90;6.90;100589.00;;;;345372;28;95642;-85
2021/11/07 01:32:16;;;;;;;;;;;6.60;99.90;6.90;100591.00;;;;346277;28;83200;-86
2021/11/07 01:32:33;;;;;;;;;;;6.60;99.90;6.90;100597.00;;;;346832;28;97249;-85
2021/11/07 01:32:49;;;;;;;;;;;6.60;99.90;6.90;100598.00;;;;347671;28;83842;-85
2021/11/07 01:33:04;;;;;;;;;;;6.50;99.90;6.90;100591.00;;;;345449;28;97375;-85
2021/11/07 01:33:20;;;;;;;;;;;6.50;99.90;7.00;100592.00;;;;346117;28;82396;-85
2021/11/07 01:33:32;;;;;;;;;;;6.50;99.90;7.00;100595.00;;;;344039;28;92900;-85
2021/11/07 01:33:45;;;;;;;;;;;6.50;99.90;7.00;100595.00;;;;344762;28;83338;-86
2021/11/07 01:33:59;;;;;;;;;;;6.50;99.90;7.10;100589.00;;;;347359;27;94849;-85
2021/11/07 01:34:27;;;;;;;;;;;6.60;99.90;7.10;100596.00;;;;347568;28;83264;-85
2021/11/07 01:35:03;;;;;;;;;;;6.60;99.90;7.10;100598.00;;;;346202;28;82282;-85
2021/11/07 01:35:37;;;;;;;;;;;6.60;99.90;7.10;100598.00;;;;347448;28;83153;-86
2021/11/07 01:36:25;;;;;;;;;;;6.60;99.90;7.10;100594.00;;;;346158;28;83278;-86
2021/11/07 01:36:56;;;;;;;;;;;6.60;99.90;7.10;100595.00;;;;348114;27;96510;-85
2021/11/07 01:37:14;;;;;;;;;;;6.60;99.90;7.00;100594.00;;;;348898;27;82447;-85
2021/11/07 01:37:30;;;;;;;;;;;6.60;99.90;7.10;100590.00;;;;345016;28;97239;-85
2021/11/07 01:37:54;;;;;;;;;;;6.60;99.90;7.10;100586.00;;;;347675;28;83061;-85
2021/11/07 01:38:25;;;;;;;;;;;6.60;99.90;7.00;100582.00;;;;347709;28;83312;-85
2021/11/07 01:38:44;;;;;;;;;;;6.60;99.90;7.10;100594.00;;;;344010;28;94153;-86
2021/11/07 01:39:33;;;;;;;;;;;6.60;99.90;7.10;100591.00;;;;346789;28;94442;-86
2021/11/07 01:39:56;;;;;;;;;;;6.60;99.90;7.10;100595.00;;;;346198;28;83133;-86
2021/11/07 01:40:14;;;;;;;;;;;6.60;99.90;7.20;100578.00;;;;345283;28;97482;-85
2021/11/07 01:40:32;;;;;;;;;;;6.60;99.90;7.20;100594.00;;;;346209;28;82445;-86
2021/11/07 01:41:00;;;;;;;;;;;6.70;99.90;7.20;100591.00;;;;346639;28;94424;-86
2021/11/07 01:41:42;;;;;;;;;;;6.70;99.90;7.10;100583.00;;;;346853;27;93204;-86
2021/11/07 01:42:02;;;;;;;;;;;6.70;99.90;7.10;100577.00;;;;347582;28;82264;-85
2021/11/07 01:42:38;;;;;;;;;;;6.70;99.90;7.00;100578.00;;;;346840;28;96944;-86
2021/11/07 01:42:57;;;;;;;;;;;6.70;99.90;7.10;100573.00;;;;344722;28;83536;-85
2021/11/07 01:43:09;;;;;;;;;;;6.60;99.90;7.00;100591.00;;;;346889;28;94154;-86
2021/11/07 01:43:21;;;;;;;;;;;6.60;99.90;7.00;100586.00;;;;346054;28;83482;-86
2021/11/07 01:43:33;;;;;;;;;;;6.60;99.90;7.10;100586.00;;;;344005;28;96938;-85
2021/11/07 01:43:46;;;;;;;;;;;6.60;99.90;7.10;100581.00;;;;347609;28;83284;-85
2021/11/07 01:43:59;;;;;;;;;;;6.60;99.90;7.20;100587.00;;;;345167;28;97923;-86
2021/11/07 01:44:11;;;;;;;;;;;6.60;99.90;7.20;100583.00;;;;344920;28;83266;-85
2021/11/07 01:44:23;;;;;;;;;;;6.60;99.90;7.20;100580.00;;;;345468;28;94149;-86
2021/11/07 01:44:49;;;;;;;;;;;6.60;99.90;7.10;100582.00;;;;345907;28;83417;-86
2021/11/07 01:45:06;;;;;;;;;;;6.60;99.90;7.10;100583.00;;;;345411;28;96809;-86
2021/11/07 01:45:26;;;;;;;;;;;6.70;99.90;7.10;100589.00;;;;347459;27;83252;-86
2021/11/07 01:45:50;;;;;;;;;;;6.60;99.90;7.10;100583.00;;;;346737;27;98021;-86
2021/11/07 01:46:12;;;;;;;;;;;6.60;99.90;7.20;100593.00;;;;346100;28;83352;-86
2021/11/07 01:46:30;;;;;;;;;;;6.60;99.90;7.20;100589.00;;;;348111;27;93561;-86
2021/11/07 01:46:47;;;;;;;;;;;6.70;99.90;7.20;100589.00;;;;347577;28;83499;-86
2021/11/07 01:46:58;;;;;;;;;;;6.70;99.90;7.10;100582.00;;;;348120;27;95039;-85
2021/11/07 01:47:11;;;;;;;;;;;6.70;99.90;7.20;100587.00;;;;347535;28;83388;-86
2021/11/07 01:47:27;;;;;;;;;;;6.70;99.90;7.20;100588.00;;;;345350;28;97364;-86
2021/11/07 01:47:47;;;;;;;;;;;6.70;99.90;7.20;100590.00;;;;347319;28;83407;-85
2021/11/07 01:48:14;;;;;;;;;;;6.70;99.90;7.20;100590.00;;;;346786;27;94220;-86
2021/11/07 01:48:29;;;;;;;;;;;6.70;99.90;7.20;100589.00;;;;346025;28;82354;-86
2021/11/07 01:48:46;;;;;;;;;;;6.70;99.90;7.20;100582.00;;;;345431;28;94169;-85
2021/11/07 01:49:20;;;;;;;;;;;6.70;99.90;7.20;100588.00;;;;345408;28;94190;-85
2021/11/07 01:49:37;;;;;;;;;;;6.70;99.90;7.10;100592.00;;;;346290;28;83302;-85
2021/11/07 01:49:49;;;;;;;;;;;6.70;99.90;7.20;100588.00;;;;348024;27;95099;-85